sensor_id;sensor_type;location;lat;lon;timestamp;P1;durP1;ratioP1;P2;durP2;ratioP2
63110;SDS011;49201;53.426;10.300;2023-02-13T00:01:14;33.77;;;22.47;;
63110;SDS011;49201;53.426;10.300;2023-02-13T00:03:40;34.80;;;22.00;;
63110;SDS011;49201;53.426;10.300;2023-02-13T00:06:05;34.07;;;22.77;;
63110;SDS011;49201;53.426;10.300;2023-02-13T00:08:31;33.23;;;22.40;;
63110;SDS011;49201;53.426;10.300;2023-02-13T00:10:56;36.00;;;22.17;;
63110;SDS011;49201;53.426;10.300;2023-02-13T00:13:22;35.20;;;22.87;;
63110;SDS011;49201;53.426;10.300;2023-02-13T00:15:54;34.93;;;23.10;;
63110;SDS011;49201;53.426;10.300;2023-02-13T00:18:20;35.13;;;23.70;;
63110;SDS011;49201;53.426;10.300;2023-02-13T00:20:55;36.57;;;22.90;;
63110;SDS011;49201;53.426;10.300;2023-02-13T00:23:24;34.37;;;21.93;;
63110;SDS011;49201;53.426;10.300;2023-02-13T00:25:49;37.27;;;24.30;;
63110;SDS011;49201;53.426;10.300;2023-02-13T00:28:15;40.17;;;23.53;;
63110;SDS011;49201;53.426;10.300;2023-02-13T00:30:40;33.80;;;22.33;;
63110;SDS011;49201;53.426;10.300;2023-02-13T00:33:06;36.43;;;23.47;;
63110;SDS011;49201;53.426;10.300;2023-02-13T00:35:31;33.97;;;22.27;;
63110;SDS011;49201;53.426;10.300;2023-02-13T00:37:57;35.53;;;23.40;;
63110;SDS011;49201;53.426;10.300;2023-02-13T00:40:23;35.93;;;23.57;;
63110;SDS011;49201;53.426;10.300;2023-02-13T00:42:49;36.50;;;24.07;;
63110;SDS011;49201;53.426;10.300;2023-02-13T00:45:14;33.23;;;23.10;;
63110;SDS011;49201;53.426;10.300;2023-02-13T00:47:39;36.13;;;23.63;;
63110;SDS011;49201;53.426;10.300;2023-02-13T00:50:05;37.33;;;24.07;;
63110;SDS011;49201;53.426;10.300;2023-02-13T00:52:31;37.37;;;24.80;;
63110;SDS011;49201;53.426;10.300;2023-02-13T00:54:56;36.07;;;23.43;;
63110;SDS011;49201;53.426;10.300;2023-02-13T00:57:22;37.37;;;24.83;;
63110;SDS011;49201;53.426;10.300;2023-02-13T00:59:47;37.23;;;23.93;;
63110;SDS011;49201;53.426;10.300;2023-02-13T01:02:13;36.73;;;24.43;;
63110;SDS011;49201;53.426;10.300;2023-02-13T01:04:38;38.57;;;24.70;;
63110;SDS011;49201;53.426;10.300;2023-02-13T01:07:03;34.43;;;23.17;;
63110;SDS011;49201;53.426;10.300;2023-02-13T01:09:29;36.90;;;23.73;;
63110;SDS011;49201;53.426;10.300;2023-02-13T01:11:54;36.50;;;23.80;;
63110;SDS011;49201;53.426;10.300;2023-02-13T01:14:20;37.93;;;25.27;;
63110;SDS011;49201;53.426;10.300;2023-02-13T01:16:47;35.33;;;23.83;;
63110;SDS011;49201;53.426;10.300;2023-02-13T01:19:13;34.40;;;22.57;;
63110;SDS011;49201;53.426;10.300;2023-02-13T01:21:38;36.80;;;23.77;;
63110;SDS011;49201;53.426;10.300;2023-02-13T01:24:04;37.27;;;22.93;;
63110;SDS011;49201;53.426;10.300;2023-02-13T01:26:30;36.43;;;23.53;;
63110;SDS011;49201;53.426;10.300;2023-02-13T01:28:55;37.97;;;24.13;;
63110;SDS011;49201;53.426;10.300;2023-02-13T01:31:22;34.73;;;23.03;;
63110;SDS011;49201;53.426;10.300;2023-02-13T01:33:48;37.33;;;23.40;;
63110;SDS011;49201;53.426;10.300;2023-02-13T01:36:14;37.10;;;23.43;;
63110;SDS011;49201;53.426;10.300;2023-02-13T01:38:40;36.90;;;22.30;;
63110;SDS011;49201;53.426;10.300;2023-02-13T01:41:07;41.30;;;24.33;;
63110;SDS011;49201;53.426;10.300;2023-02-13T01:43:53;35.70;;;22.40;;
63110;SDS011;49201;53.426;10.300;2023-02-13T01:48:56;34.97;;;22.37;;
63110;SDS011;49201;53.426;10.300;2023-02-13T01:51:28;33.00;;;21.37;;
63110;SDS011;49201;53.426;10.300;2023-02-13T01:54:02;34.80;;;20.87;;
63110;SDS011;49201;53.426;10.300;2023-02-13T01:56:39;33.07;;;21.50;;
63110;SDS011;49201;53.426;10.300;2023-02-13T01:59:10;31.27;;;19.93;;
63110;SDS011;49201;53.426;10.300;2023-02-13T02:01:41;34.83;;;20.87;;
63110;SDS011;49201;53.426;10.300;2023-02-13T02:04:15;31.87;;;21.83;;
63110;SDS011;49201;53.426;10.300;2023-02-13T02:06:52;31.03;;;20.67;;
63110;SDS011;49201;53.426;10.300;2023-02-13T02:09:26;32.57;;;20.17;;
63110;SDS011;49201;53.426;10.300;2023-02-13T02:14:47;29.83;;;19.70;;
63110;SDS011;49201;53.426;10.300;2023-02-13T02:17:16;29.90;;;20.30;;
63110;SDS011;49201;53.426;10.300;2023-02-13T02:20:00;34.80;;;21.40;;
63110;SDS011;49201;53.426;10.300;2023-02-13T02:34:13;31.40;;;19.53;;
63110;SDS011;49201;53.426;10.300;2023-02-13T02:49:05;30.00;;;18.67;;
63110;SDS011;49201;53.426;10.300;2023-02-13T02:52:02;30.97;;;18.20;;
63110;SDS011;49201;53.426;10.300;2023-02-13T02:54:52;24.37;;;17.43;;
63110;SDS011;49201;53.426;10.300;2023-02-13T02:57:44;24.87;;;17.40;;
63110;SDS011;49201;53.426;10.300;2023-02-13T03:00:36;25.97;;;17.00;;
63110;SDS011;49201;53.426;10.300;2023-02-13T03:03:24;30.07;;;18.80;;
63110;SDS011;49201;53.426;10.300;2023-02-13T03:06:14;26.43;;;16.30;;
63110;SDS011;49201;53.426;10.300;2023-02-13T03:08:44;24.50;;;16.27;;
63110;SDS011;49201;53.426;10.300;2023-02-13T03:11:35;25.10;;;16.73;;
63110;SDS011;49201;53.426;10.300;2023-02-13T03:14:20;24.17;;;15.67;;
63110;SDS011;49201;53.426;10.300;2023-02-13T03:16:49;21.80;;;15.17;;
63110;SDS011;49201;53.426;10.300;2023-02-13T03:19:43;21.97;;;14.67;;
63110;SDS011;49201;53.426;10.300;2023-02-13T03:25:45;22.97;;;14.40;;
63110;SDS011;49201;53.426;10.300;2023-02-13T03:28:20;21.37;;;13.77;;
63110;SDS011;49201;53.426;10.300;2023-02-13T03:42:22;23.43;;;15.97;;
63110;SDS011;49201;53.426;10.300;2023-02-13T03:47:52;23.33;;;15.13;;
63110;SDS011;49201;53.426;10.300;2023-02-13T03:50:20;21.13;;;15.03;;
63110;SDS011;49201;53.426;10.300;2023-02-13T03:55:24;22.20;;;14.60;;
63110;SDS011;49201;53.426;10.300;2023-02-13T03:58:14;19.73;;;14.50;;
63110;SDS011;49201;53.426;10.300;2023-02-13T04:01:04;22.60;;;13.87;;
63110;SDS011;49201;53.426;10.300;2023-02-13T04:03:37;22.47;;;14.83;;
63110;SDS011;49201;53.426;10.300;2023-02-13T04:06:12;24.13;;;14.20;;
63110;SDS011;49201;53.426;10.300;2023-02-13T04:08:41;20.97;;;13.27;;
63110;SDS011;49201;53.426;10.300;2023-02-13T04:11:09;18.07;;;13.37;;
63110;SDS011;49201;53.426;10.300;2023-02-13T04:13:47;17.27;;;12.70;;
63110;SDS011;49201;53.426;10.300;2023-02-13T04:16:20;19.27;;;13.23;;
63110;SDS011;49201;53.426;10.300;2023-02-13T04:18:52;21.03;;;14.20;;
63110;SDS011;49201;53.426;10.300;2023-02-13T04:21:19;19.33;;;13.40;;
63110;SDS011;49201;53.426;10.300;2023-02-13T04:23:45;20.83;;;12.70;;
63110;SDS011;49201;53.426;10.300;2023-02-13T04:26:15;19.23;;;12.23;;
63110;SDS011;49201;53.426;10.300;2023-02-13T04:28:43;17.23;;;12.80;;
63110;SDS011;49201;53.426;10.300;2023-02-13T04:31:09;21.77;;;13.10;;
63110;SDS011;49201;53.426;10.300;2023-02-13T04:33:34;18.40;;;12.60;;
63110;SDS011;49201;53.426;10.300;2023-02-13T04:36:00;17.03;;;12.53;;
63110;SDS011;49201;53.426;10.300;2023-02-13T04:38:25;17.73;;;12.13;;
63110;SDS011;49201;53.426;10.300;2023-02-13T04:40:51;17.13;;;12.07;;
63110;SDS011;49201;53.426;10.300;2023-02-13T04:43:16;17.27;;;12.40;;
63110;SDS011;49201;53.426;10.300;2023-02-13T04:45:42;17.53;;;12.23;;
63110;SDS011;49201;53.426;10.300;2023-02-13T04:48:07;18.23;;;12.47;;
63110;SDS011;49201;53.426;10.300;2023-02-13T04:50:33;17.17;;;12.60;;
63110;SDS011;49201;53.426;10.300;2023-02-13T04:52:58;17.80;;;13.13;;
63110;SDS011;49201;53.426;10.300;2023-02-13T04:55:25;19.83;;;12.87;;
63110;SDS011;49201;53.426;10.300;2023-02-13T04:57:52;19.13;;;13.37;;
63110;SDS011;49201;53.426;10.300;2023-02-13T05:00:19;18.10;;;12.50;;
63110;SDS011;49201;53.426;10.300;2023-02-13T05:02:45;20.17;;;12.50;;
63110;SDS011;49201;53.426;10.300;2023-02-13T05:05:10;19.80;;;12.13;;
63110;SDS011;49201;53.426;10.300;2023-02-13T05:07:36;18.23;;;12.47;;
63110;SDS011;49201;53.426;10.300;2023-02-13T05:10:01;18.43;;;13.77;;
63110;SDS011;49201;53.426;10.300;2023-02-13T05:12:27;23.17;;;13.07;;
63110;SDS011;49201;53.426;10.300;2023-02-13T05:14:53;17.67;;;12.40;;
63110;SDS011;49201;53.426;10.300;2023-02-13T05:17:18;19.40;;;13.30;;
63110;SDS011;49201;53.426;10.300;2023-02-13T05:19:44;22.23;;;13.40;;
63110;SDS011;49201;53.426;10.300;2023-02-13T05:22:09;18.20;;;13.70;;
63110;SDS011;49201;53.426;10.300;2023-02-13T05:24:54;22.40;;;14.27;;
63110;SDS011;49201;53.426;10.300;2023-02-13T05:27:19;19.97;;;13.53;;
63110;SDS011;49201;53.426;10.300;2023-02-13T05:29:45;21.17;;;13.57;;
63110;SDS011;49201;53.426;10.300;2023-02-13T05:32:10;19.63;;;13.27;;
63110;SDS011;49201;53.426;10.300;2023-02-13T05:34:36;20.70;;;14.30;;
63110;SDS011;49201;53.426;10.300;2023-02-13T05:37:01;19.13;;;13.93;;
63110;SDS011;49201;53.426;10.300;2023-02-13T05:39:26;21.33;;;13.83;;
63110;SDS011;49201;53.426;10.300;2023-02-13T05:41:52;20.70;;;14.53;;
63110;SDS011;49201;53.426;10.300;2023-02-13T05:44:17;21.87;;;14.93;;
63110;SDS011;49201;53.426;10.300;2023-02-13T05:46:43;21.07;;;15.40;;
63110;SDS011;49201;53.426;10.300;2023-02-13T05:49:10;25.90;;;15.43;;
63110;SDS011;49201;53.426;10.300;2023-02-13T05:51:37;24.27;;;14.53;;
63110;SDS011;49201;53.426;10.300;2023-02-13T05:54:03;22.77;;;14.23;;
63110;SDS011;49201;53.426;10.300;2023-02-13T05:56:29;23.40;;;15.03;;
63110;SDS011;49201;53.426;10.300;2023-02-13T05:58:54;21.00;;;14.63;;
63110;SDS011;49201;53.426;10.300;2023-02-13T06:01:21;22.40;;;15.20;;
63110;SDS011;49201;53.426;10.300;2023-02-13T06:03:47;21.67;;;14.20;;
63110;SDS011;49201;53.426;10.300;2023-02-13T06:06:13;19.10;;;13.90;;
63110;SDS011;49201;53.426;10.300;2023-02-13T06:08:39;21.00;;;14.10;;
63110;SDS011;49201;53.426;10.300;2023-02-13T06:11:05;22.67;;;14.93;;
63110;SDS011;49201;53.426;10.300;2023-02-13T06:13:31;21.73;;;14.17;;
63110;SDS011;49201;53.426;10.300;2023-02-13T06:15:56;22.93;;;14.37;;
63110;SDS011;49201;53.426;10.300;2023-02-13T06:18:22;20.57;;;14.10;;
63110;SDS011;49201;53.426;10.300;2023-02-13T06:20:48;21.37;;;14.53;;
63110;SDS011;49201;53.426;10.300;2023-02-13T06:23:13;21.43;;;14.90;;
63110;SDS011;49201;53.426;10.300;2023-02-13T06:25:39;21.13;;;14.27;;
63110;SDS011;49201;53.426;10.300;2023-02-13T06:28:05;21.53;;;15.57;;
63110;SDS011;49201;53.426;10.300;2023-02-13T06:30:31;21.80;;;14.27;;
63110;SDS011;49201;53.426;10.300;2023-02-13T06:32:56;24.57;;;15.63;;
63110;SDS011;49201;53.426;10.300;2023-02-13T06:35:22;22.33;;;15.37;;
63110;SDS011;49201;53.426;10.300;2023-02-13T06:37:48;24.83;;;15.40;;
63110;SDS011;49201;53.426;10.300;2023-02-13T06:40:14;24.83;;;13.90;;
63110;SDS011;49201;53.426;10.300;2023-02-13T06:42:43;23.33;;;14.93;;
63110;SDS011;49201;53.426;10.300;2023-02-13T06:45:09;24.93;;;15.70;;
63110;SDS011;49201;53.426;10.300;2023-02-13T06:47:35;22.70;;;16.27;;
63110;SDS011;49201;53.426;10.300;2023-02-13T06:50:00;21.50;;;15.20;;
63110;SDS011;49201;53.426;10.300;2023-02-13T06:52:26;22.60;;;15.30;;
63110;SDS011;49201;53.426;10.300;2023-02-13T06:54:52;20.33;;;15.23;;
63110;SDS011;49201;53.426;10.300;2023-02-13T06:57:17;20.33;;;15.20;;
63110;SDS011;49201;53.426;10.300;2023-02-13T06:59:43;25.00;;;17.27;;
63110;SDS011;49201;53.426;10.300;2023-02-13T07:02:09;21.73;;;16.13;;
63110;SDS011;49201;53.426;10.300;2023-02-13T07:04:35;23.30;;;14.50;;
63110;SDS011;49201;53.426;10.300;2023-02-13T07:07:01;20.70;;;14.43;;
63110;SDS011;49201;53.426;10.300;2023-02-13T07:09:26;22.57;;;14.87;;
63110;SDS011;49201;53.426;10.300;2023-02-13T07:11:52;24.53;;;15.63;;
63110;SDS011;49201;53.426;10.300;2023-02-13T07:14:17;21.63;;;15.80;;
63110;SDS011;49201;53.426;10.300;2023-02-13T07:16:42;22.80;;;16.03;;
63110;SDS011;49201;53.426;10.300;2023-02-13T07:19:08;21.63;;;15.10;;
63110;SDS011;49201;53.426;10.300;2023-02-13T07:21:33;23.83;;;15.83;;
63110;SDS011;49201;53.426;10.300;2023-02-13T07:23:59;24.93;;;17.03;;
63110;SDS011;49201;53.426;10.300;2023-02-13T07:26:25;25.87;;;16.27;;
63110;SDS011;49201;53.426;10.300;2023-02-13T07:28:51;26.10;;;17.67;;
63110;SDS011;49201;53.426;10.300;2023-02-13T07:31:17;22.87;;;16.37;;
63110;SDS011;49201;53.426;10.300;2023-02-13T07:33:42;25.13;;;16.63;;
63110;SDS011;49201;53.426;10.300;2023-02-13T07:36:08;26.03;;;17.13;;
63110;SDS011;49201;53.426;10.300;2023-02-13T07:38:33;27.40;;;17.33;;
63110;SDS011;49201;53.426;10.300;2023-02-13T07:40:59;27.43;;;18.67;;
63110;SDS011;49201;53.426;10.300;2023-02-13T07:43:26;28.83;;;17.57;;
63110;SDS011;49201;53.426;10.300;2023-02-13T07:45:52;28.00;;;18.97;;
63110;SDS011;49201;53.426;10.300;2023-02-13T07:48:22;29.43;;;17.30;;
63110;SDS011;49201;53.426;10.300;2023-02-13T07:50:48;28.80;;;18.37;;
63110;SDS011;49201;53.426;10.300;2023-02-13T07:53:14;28.03;;;17.80;;
63110;SDS011;49201;53.426;10.300;2023-02-13T07:55:40;26.97;;;17.70;;
63110;SDS011;49201;53.426;10.300;2023-02-13T07:58:05;28.77;;;18.53;;
63110;SDS011;49201;53.426;10.300;2023-02-13T08:00:31;29.17;;;18.90;;
63110;SDS011;49201;53.426;10.300;2023-02-13T08:02:59;27.60;;;17.77;;
63110;SDS011;49201;53.426;10.300;2023-02-13T08:05:25;28.47;;;17.87;;
63110;SDS011;49201;53.426;10.300;2023-02-13T08:07:51;30.57;;;18.83;;
63110;SDS011;49201;53.426;10.300;2023-02-13T08:10:18;28.23;;;18.83;;
63110;SDS011;49201;53.426;10.300;2023-02-13T08:13:03;28.37;;;18.57;;
63110;SDS011;49201;53.426;10.300;2023-02-13T08:15:29;33.23;;;19.47;;
63110;SDS011;49201;53.426;10.300;2023-02-13T08:17:55;29.07;;;17.97;;
63110;SDS011;49201;53.426;10.300;2023-02-13T08:20:20;26.30;;;18.07;;
63110;SDS011;49201;53.426;10.300;2023-02-13T08:22:46;30.03;;;19.40;;
63110;SDS011;49201;53.426;10.300;2023-02-13T08:25:11;26.63;;;18.50;;
63110;SDS011;49201;53.426;10.300;2023-02-13T08:27:37;28.30;;;19.07;;
63110;SDS011;49201;53.426;10.300;2023-02-13T08:30:03;26.53;;;19.00;;
63110;SDS011;49201;53.426;10.300;2023-02-13T08:32:29;27.27;;;18.80;;
63110;SDS011;49201;53.426;10.300;2023-02-13T08:34:55;29.57;;;19.33;;
63110;SDS011;49201;53.426;10.300;2023-02-13T08:37:20;28.73;;;18.53;;
63110;SDS011;49201;53.426;10.300;2023-02-13T08:39:47;30.93;;;19.40;;
63110;SDS011;49201;53.426;10.300;2023-02-13T08:42:12;31.50;;;18.83;;
63110;SDS011;49201;53.426;10.300;2023-02-13T08:44:38;29.70;;;18.83;;
63110;SDS011;49201;53.426;10.300;2023-02-13T08:47:05;27.67;;;17.17;;
63110;SDS011;49201;53.426;10.300;2023-02-13T08:49:32;27.13;;;18.03;;
63110;SDS011;49201;53.426;10.300;2023-02-13T08:51:58;28.03;;;18.77;;
63110;SDS011;49201;53.426;10.300;2023-02-13T08:54:24;27.40;;;19.30;;
63110;SDS011;49201;53.426;10.300;2023-02-13T08:56:49;29.97;;;19.70;;
63110;SDS011;49201;53.426;10.300;2023-02-13T08:59:15;31.50;;;19.30;;
63110;SDS011;49201;53.426;10.300;2023-02-13T09:01:41;35.97;;;19.63;;
63110;SDS011;49201;53.426;10.300;2023-02-13T09:04:06;30.00;;;19.50;;
63110;SDS011;49201;53.426;10.300;2023-02-13T09:06:31;29.27;;;19.30;;
63110;SDS011;49201;53.426;10.300;2023-02-13T09:08:57;28.83;;;18.80;;
63110;SDS011;49201;53.426;10.300;2023-02-13T09:11:23;33.37;;;20.27;;
63110;SDS011;49201;53.426;10.300;2023-02-13T09:13:51;31.40;;;20.40;;
63110;SDS011;49201;53.426;10.300;2023-02-13T09:16:17;32.03;;;19.83;;
63110;SDS011;49201;53.426;10.300;2023-02-13T09:18:43;29.50;;;20.30;;
63110;SDS011;49201;53.426;10.300;2023-02-13T09:21:11;34.07;;;20.27;;
63110;SDS011;49201;53.426;10.300;2023-02-13T09:23:38;28.23;;;18.97;;
63110;SDS011;49201;53.426;10.300;2023-02-13T09:26:06;28.20;;;19.63;;
63110;SDS011;49201;53.426;10.300;2023-02-13T09:28:34;28.60;;;19.67;;
63110;SDS011;49201;53.426;10.300;2023-02-13T09:31:16;29.17;;;19.43;;
63110;SDS011;49201;53.426;10.300;2023-02-13T09:33:44;32.10;;;19.50;;
63110;SDS011;49201;53.426;10.300;2023-02-13T09:36:13;28.97;;;19.93;;
63110;SDS011;49201;53.426;10.300;2023-02-13T09:38:41;32.53;;;20.97;;
63110;SDS011;49201;53.426;10.300;2023-02-13T09:41:12;30.67;;;19.90;;
63110;SDS011;49201;53.426;10.300;2023-02-13T09:43:48;31.27;;;19.83;;
63110;SDS011;49201;53.426;10.300;2023-02-13T09:46:23;31.03;;;19.40;;
63110;SDS011;49201;53.426;10.300;2023-02-13T09:48:54;27.43;;;18.97;;
63110;SDS011;49201;53.426;10.300;2023-02-13T09:51:23;30.37;;;19.20;;
63110;SDS011;49201;53.426;10.300;2023-02-13T09:53:57;29.20;;;19.70;;
63110;SDS011;49201;53.426;10.300;2023-02-13T09:59:20;29.67;;;19.63;;
63110;SDS011;49201;53.426;10.300;2023-02-13T10:02:30;29.30;;;19.37;;
63110;SDS011;49201;53.426;10.300;2023-02-13T10:08:00;27.10;;;18.10;;
63110;SDS011;49201;53.426;10.300;2023-02-13T10:10:52;29.63;;;19.40;;
63110;SDS011;49201;53.426;10.300;2023-02-13T10:16:05;30.50;;;19.80;;
63110;SDS011;49201;53.426;10.300;2023-02-13T10:18:48;26.97;;;17.80;;
63110;SDS011;49201;53.426;10.300;2023-02-13T10:21:18;30.50;;;18.87;;
63110;SDS011;49201;53.426;10.300;2023-02-13T10:26:19;29.07;;;19.37;;
63110;SDS011;49201;53.426;10.300;2023-02-13T10:28:57;26.47;;;18.13;;
63110;SDS011;49201;53.426;10.300;2023-02-13T10:31:47;29.10;;;18.73;;
63110;SDS011;49201;53.426;10.300;2023-02-13T10:34:16;26.20;;;18.03;;
63110;SDS011;49201;53.426;10.300;2023-02-13T10:36:46;27.40;;;18.03;;
63110;SDS011;49201;53.426;10.300;2023-02-13T10:41:53;29.33;;;19.57;;
63110;SDS011;49201;53.426;10.300;2023-02-13T10:52:02;25.67;;;17.33;;
63110;SDS011;49201;53.426;10.300;2023-02-13T10:57:34;29.03;;;18.20;;
63110;SDS011;49201;53.426;10.300;2023-02-13T11:00:21;25.33;;;17.67;;
63110;SDS011;49201;53.426;10.300;2023-02-13T11:02:54;30.20;;;17.17;;
63110;SDS011;49201;53.426;10.300;2023-02-13T11:05:21;28.10;;;18.00;;
63110;SDS011;49201;53.426;10.300;2023-02-13T11:07:49;25.97;;;17.57;;
63110;SDS011;49201;53.426;10.300;2023-02-13T11:10:22;25.00;;;17.00;;
63110;SDS011;49201;53.426;10.300;2023-02-13T11:12:49;24.80;;;16.87;;
63110;SDS011;49201;53.426;10.300;2023-02-13T11:15:23;23.33;;;16.77;;
63110;SDS011;49201;53.426;10.300;2023-02-13T11:17:57;26.30;;;16.73;;
63110;SDS011;49201;53.426;10.300;2023-02-13T11:26:02;24.70;;;16.17;;
63110;SDS011;49201;53.426;10.300;2023-02-13T11:28:33;22.40;;;15.73;;
63110;SDS011;49201;53.426;10.300;2023-02-13T11:31:22;21.77;;;16.13;;
63110;SDS011;49201;53.426;10.300;2023-02-13T11:33:52;20.70;;;14.87;;
63110;SDS011;49201;53.426;10.300;2023-02-13T11:36:23;23.63;;;15.40;;
63110;SDS011;49201;53.426;10.300;2023-02-13T11:38:57;21.60;;;16.07;;
63110;SDS011;49201;53.426;10.300;2023-02-13T11:41:36;18.27;;;14.20;;
63110;SDS011;49201;53.426;10.300;2023-02-13T11:44:04;21.17;;;15.00;;
63110;SDS011;49201;53.426;10.300;2023-02-13T11:46:46;19.57;;;13.97;;
63110;SDS011;49201;53.426;10.300;2023-02-13T11:49:15;20.63;;;14.17;;
63110;SDS011;49201;53.426;10.300;2023-02-13T11:51:44;20.37;;;14.20;;
63110;SDS011;49201;53.426;10.300;2023-02-13T11:57:02;20.43;;;13.60;;
63110;SDS011;49201;53.426;10.300;2023-02-13T11:59:47;22.20;;;14.63;;
63110;SDS011;49201;53.426;10.300;2023-02-13T12:02:21;18.70;;;12.90;;
63110;SDS011;49201;53.426;10.300;2023-02-13T12:05:14;19.73;;;13.10;;
63110;SDS011;49201;53.426;10.300;2023-02-13T12:07:44;19.70;;;13.90;;
63110;SDS011;49201;53.426;10.300;2023-02-13T12:12:43;18.83;;;13.37;;
63110;SDS011;49201;53.426;10.300;2023-02-13T12:15:35;18.73;;;13.57;;
63110;SDS011;49201;53.426;10.300;2023-02-13T12:20:58;20.70;;;13.87;;
63110;SDS011;49201;53.426;10.300;2023-02-13T12:23:53;22.80;;;14.90;;
63110;SDS011;49201;53.426;10.300;2023-02-13T12:45:27;21.63;;;14.97;;
63110;SDS011;49201;53.426;10.300;2023-02-13T12:53:21;23.03;;;14.00;;
63110;SDS011;49201;53.426;10.300;2023-02-13T13:04:25;22.40;;;14.70;;
63110;SDS011;49201;53.426;10.300;2023-02-13T13:28:37;21.63;;;14.30;;
63110;SDS011;49201;53.426;10.300;2023-02-13T13:31:06;18.60;;;13.63;;
63110;SDS011;49201;53.426;10.300;2023-02-13T13:33:32;21.20;;;14.00;;
63110;SDS011;49201;53.426;10.300;2023-02-13T13:54:45;21.93;;;14.07;;
63110;SDS011;49201;53.426;10.300;2023-02-13T13:57:15;24.43;;;14.13;;
63110;SDS011;49201;53.426;10.300;2023-02-13T14:07:49;21.93;;;14.10;;
63110;SDS011;49201;53.426;10.300;2023-02-13T14:12:49;22.13;;;14.33;;
63110;SDS011;49201;53.426;10.300;2023-02-13T14:16:10;21.70;;;14.27;;
63110;SDS011;49201;53.426;10.300;2023-02-13T14:25:36;24.87;;;14.87;;
63110;SDS011;49201;53.426;10.300;2023-02-13T14:28:02;21.50;;;14.77;;
63110;SDS011;49201;53.426;10.300;2023-02-13T14:30:31;21.27;;;14.27;;
63110;SDS011;49201;53.426;10.300;2023-02-13T14:32:59;21.77;;;14.57;;
63110;SDS011;49201;53.426;10.300;2023-02-13T14:35:34;23.17;;;15.00;;
63110;SDS011;49201;53.426;10.300;2023-02-13T14:38:05;22.63;;;14.63;;
63110;SDS011;49201;53.426;10.300;2023-02-13T14:40:48;26.97;;;15.73;;
63110;SDS011;49201;53.426;10.300;2023-02-13T14:46:13;25.17;;;15.97;;
63110;SDS011;49201;53.426;10.300;2023-02-13T14:48:57;31.43;;;20.37;;
63110;SDS011;49201;53.426;10.300;2023-02-13T14:51:40;35.47;;;19.67;;
63110;SDS011;49201;53.426;10.300;2023-02-13T14:54:14;30.23;;;19.70;;
63110;SDS011;49201;53.426;10.300;2023-02-13T14:56:48;31.50;;;20.33;;
63110;SDS011;49201;53.426;10.300;2023-02-13T14:59:16;28.33;;;19.10;;
63110;SDS011;49201;53.426;10.300;2023-02-13T15:01:48;27.70;;;18.60;;
63110;SDS011;49201;53.426;10.300;2023-02-13T15:04:20;27.73;;;18.27;;
63110;SDS011;49201;53.426;10.300;2023-02-13T15:06:50;28.73;;;18.30;;
63110;SDS011;49201;53.426;10.300;2023-02-13T15:09:21;28.47;;;16.87;;
63110;SDS011;49201;53.426;10.300;2023-02-13T15:11:51;26.60;;;17.67;;
63110;SDS011;49201;53.426;10.300;2023-02-13T15:16:48;31.27;;;18.83;;
63110;SDS011;49201;53.426;10.300;2023-02-13T15:19:18;30.37;;;18.97;;
63110;SDS011;49201;53.426;10.300;2023-02-13T15:21:46;30.50;;;18.97;;
63110;SDS011;49201;53.426;10.300;2023-02-13T15:24:15;29.87;;;19.03;;
63110;SDS011;49201;53.426;10.300;2023-02-13T15:26:40;32.37;;;18.77;;
63110;SDS011;49201;53.426;10.300;2023-02-13T15:29:14;30.27;;;18.53;;
63110;SDS011;49201;53.426;10.300;2023-02-13T15:31:41;29.33;;;18.40;;
63110;SDS011;49201;53.426;10.300;2023-02-13T15:34:17;31.20;;;18.93;;
63110;SDS011;49201;53.426;10.300;2023-02-13T15:36:44;30.20;;;18.60;;
63110;SDS011;49201;53.426;10.300;2023-02-13T15:39:14;28.50;;;18.77;;
63110;SDS011;49201;53.426;10.300;2023-02-13T15:41:43;31.33;;;19.13;;
63110;SDS011;49201;53.426;10.300;2023-02-13T15:44:25;32.10;;;19.87;;
63110;SDS011;49201;53.426;10.300;2023-02-13T15:46:53;34.13;;;20.50;;
63110;SDS011;49201;53.426;10.300;2023-02-13T15:49:23;33.70;;;20.50;;
63110;SDS011;49201;53.426;10.300;2023-02-13T15:51:50;32.20;;;20.33;;
63110;SDS011;49201;53.426;10.300;2023-02-13T15:54:27;39.33;;;22.33;;
63110;SDS011;49201;53.426;10.300;2023-02-13T15:56:55;38.77;;;22.13;;
63110;SDS011;49201;53.426;10.300;2023-02-13T15:59:28;36.07;;;21.47;;
63110;SDS011;49201;53.426;10.300;2023-02-13T16:01:57;38.53;;;21.37;;
63110;SDS011;49201;53.426;10.300;2023-02-13T16:04:24;40.90;;;22.03;;
63110;SDS011;49201;53.426;10.300;2023-02-13T16:06:52;38.80;;;21.57;;
63110;SDS011;49201;53.426;10.300;2023-02-13T16:09:21;42.27;;;22.67;;
63110;SDS011;49201;53.426;10.300;2023-02-13T16:12:27;36.47;;;21.50;;
63110;SDS011;49201;53.426;10.300;2023-02-13T16:14:57;35.17;;;21.27;;
63110;SDS011;49201;53.426;10.300;2023-02-13T16:17:27;37.13;;;22.30;;
63110;SDS011;49201;53.426;10.300;2023-02-13T16:19:58;39.97;;;22.83;;
63110;SDS011;49201;53.426;10.300;2023-02-13T16:27:45;40.30;;;23.43;;
63110;SDS011;49201;53.426;10.300;2023-02-13T16:38:30;45.07;;;24.47;;
63110;SDS011;49201;53.426;10.300;2023-02-13T16:43:47;42.20;;;24.27;;
63110;SDS011;49201;53.426;10.300;2023-02-13T16:51:29;41.50;;;24.17;;
63110;SDS011;49201;53.426;10.300;2023-02-13T16:53:56;42.37;;;24.30;;
63110;SDS011;49201;53.426;10.300;2023-02-13T16:56:23;42.80;;;23.97;;
63110;SDS011;49201;53.426;10.300;2023-02-13T16:58:49;43.57;;;24.37;;
63110;SDS011;49201;53.426;10.300;2023-02-13T17:01:14;40.57;;;23.60;;
63110;SDS011;49201;53.426;10.300;2023-02-13T17:03:42;38.07;;;22.93;;
63110;SDS011;49201;53.426;10.300;2023-02-13T17:06:08;44.13;;;25.20;;
63110;SDS011;49201;53.426;10.300;2023-02-13T17:08:34;43.67;;;25.40;;
63110;SDS011;49201;53.426;10.300;2023-02-13T17:11:02;43.77;;;26.37;;
63110;SDS011;49201;53.426;10.300;2023-02-13T17:13:29;43.90;;;24.67;;
63110;SDS011;49201;53.426;10.300;2023-02-13T17:15:54;42.40;;;25.23;;
63110;SDS011;49201;53.426;10.300;2023-02-13T17:18:20;53.37;;;28.97;;
63110;SDS011;49201;53.426;10.300;2023-02-13T17:20:45;51.90;;;29.10;;
63110;SDS011;49201;53.426;10.300;2023-02-13T17:23:18;47.17;;;27.03;;
63110;SDS011;49201;53.426;10.300;2023-02-13T17:25:47;47.90;;;26.63;;
63110;SDS011;49201;53.426;10.300;2023-02-13T17:28:15;42.07;;;24.43;;
63110;SDS011;49201;53.426;10.300;2023-02-13T17:30:43;44.03;;;24.83;;
63110;SDS011;49201;53.426;10.300;2023-02-13T17:33:22;44.47;;;23.93;;
63110;SDS011;49201;53.426;10.300;2023-02-13T17:35:49;42.23;;;24.93;;
63110;SDS011;49201;53.426;10.300;2023-02-13T17:38:15;41.37;;;24.53;;
63110;SDS011;49201;53.426;10.300;2023-02-13T17:40:41;41.13;;;24.17;;
63110;SDS011;49201;53.426;10.300;2023-02-13T17:43:09;43.87;;;24.47;;
63110;SDS011;49201;53.426;10.300;2023-02-13T17:45:35;41.23;;;23.87;;
63110;SDS011;49201;53.426;10.300;2023-02-13T17:48:01;43.33;;;24.53;;
63110;SDS011;49201;53.426;10.300;2023-02-13T17:50:27;44.17;;;23.60;;